createdAt,value
2018-06-22T00:00:48.296Z,9.3
2018-06-22T00:01:48.281Z,9.35
2018-06-22T00:02:48.270Z,9.44
2018-06-22T00:03:48.260Z,9.56
2018-06-22T00:04:48.251Z,9.48
2018-06-22T00:05:48.383Z,9.57
2018-06-22T00:06:48.237Z,9.62
2018-06-22T00:07:48.218Z,9.64
2018-06-22T00:08:48.209Z,9.72
2018-06-22T00:09:48.199Z,9.7
2018-06-22T00:10:48.190Z,9.7
2018-06-22T00:11:48.189Z,9.78
2018-06-22T00:12:48.172Z,9.74
2018-06-22T00:13:48.162Z,9.8
2018-06-22T00:14:47.893Z,9.8
2018-06-22T00:15:48.151Z,9.9
2018-06-22T00:16:48.131Z,9.96
2018-06-22T00:17:47.865Z,9.93
2018-06-22T00:18:48.111Z,9.93
2018-06-22T00:19:47.848Z,9.93
2018-06-22T00:20:47.834Z,10.02
2018-06-22T00:21:48.081Z,10.03
2018-06-22T00:22:48.073Z,10.1
2018-06-22T00:23:47.807Z,9.99
2018-06-22T00:24:48.053Z,10.07
2018-06-22T00:25:47.787Z,10.1
2018-06-22T00:26:48.036Z,10.03
2018-06-22T00:27:48.046Z,10.1
2018-06-22T00:28:48.014Z,10.11
2018-06-22T00:29:47.751Z,10.13
2018-06-22T00:30:47.998Z,10.14
2018-06-22T00:31:47.994Z,10.13
2018-06-22T00:32:47.978Z,10.18
2018-06-22T00:33:47.711Z,10.05
2018-06-22T00:34:47.958Z,10.15
2018-06-22T00:35:47.692Z,10.18
2018-06-22T00:36:47.942Z,10.1
2018-06-22T00:37:47.673Z,10.15
2018-06-22T00:38:47.665Z,10.08
2018-06-22T00:39:47.905Z,10.14
2018-06-22T00:40:47.898Z,10.15
2018-06-22T00:41:47.890Z,10.11
2018-06-22T00:42:47.883Z,10.07
2018-06-22T00:43:47.874Z,9.99
2018-06-22T00:44:47.859Z,10.02
2018-06-22T00:45:47.598Z,10
2018-06-22T00:46:47.584Z,9.93
2018-06-22T00:47:47.835Z,9.95
2018-06-22T00:48:47.829Z,9.81
2018-06-22T00:49:47.820Z,9.74
2018-06-22T00:50:47.806Z,9.71
2018-06-22T00:51:47.795Z,9.53
2018-06-22T00:52:47.785Z,9.62
2018-06-22T00:53:47.521Z,9.52
2018-06-22T00:54:47.764Z,9.52
2018-06-22T00:55:47.753Z,9.44
2018-06-22T00:56:47.744Z,9.42
2018-06-22T00:57:47.740Z,9.41
2018-06-22T00:58:47.474Z,9.24
2018-06-22T00:59:47.461Z,9.23
2018-06-22T01:00:47.301Z,9.2
2018-06-22T01:01:47.701Z,9.16
2018-06-22T01:02:47.428Z,9.09
2018-06-22T01:03:47.424Z,9.03
2018-06-22T01:04:47.413Z,9.05
2018-06-22T01:05:47.662Z,9.01
2018-06-22T01:06:47.653Z,8.98
2018-06-22T01:07:47.646Z,9.03
2018-06-22T01:08:47.375Z,9.04
2018-06-22T01:09:47.621Z,9.01
2018-06-22T01:10:47.620Z,8.92
2018-06-22T01:11:47.344Z,8.95
2018-06-22T01:12:47.609Z,8.95
2018-06-22T01:13:47.318Z,8.94
2018-06-22T01:14:47.571Z,8.9
2018-06-22T01:15:47.556Z,9.03
2018-06-22T01:16:47.549Z,8.97
2018-06-22T01:17:47.540Z,9.05
2018-06-22T01:18:47.528Z,9.03
2018-06-22T01:19:47.520Z,8.97
2018-06-22T01:20:47.516Z,9.04
2018-06-22T01:21:47.497Z,9.09
2018-06-22T01:22:47.231Z,9.16
2018-06-22T01:23:47.477Z,9.11
2018-06-22T01:24:47.468Z,9.16
2018-06-22T01:25:47.457Z,9.24
2018-06-22T01:26:47.455Z,9.35
2018-06-22T01:27:47.440Z,9.29
2018-06-22T01:28:47.174Z,9.37
2018-06-22T01:29:47.164Z,9.27
2018-06-22T01:30:47.151Z,9.29
2018-06-22T01:31:47.139Z,9.47
2018-06-22T01:32:47.387Z,9.38
2018-06-22T01:33:47.379Z,9.44
2018-06-22T01:34:47.384Z,9.48
2018-06-22T01:35:47.398Z,9.39
2018-06-22T01:36:47.099Z,9.35
2018-06-22T01:37:47.078Z,9.44
2018-06-22T01:38:47.326Z,9.29
2018-06-22T01:39:47.063Z,9.16
2018-06-22T01:40:47.047Z,9.23
2018-06-22T01:41:47.294Z,9.17
2018-06-22T01:42:47.284Z,9.08
2018-06-22T01:43:47.276Z,9.05
2018-06-22T01:44:47.012Z,9.09
2018-06-22T01:45:47.260Z,9.16
2018-06-22T01:46:47.246Z,9.05
2018-06-22T01:47:47.246Z,9.16
2018-06-22T01:48:46.970Z,9.14
2018-06-22T01:49:47.220Z,9.09
2018-06-22T01:50:46.697Z,9.12
2018-06-22T01:51:47.201Z,9.16
2018-06-22T01:52:47.186Z,9.16
2018-06-22T01:53:47.176Z,9.08
2018-06-22T01:54:46.909Z,9.11
2018-06-22T01:55:47.153Z,9.03
2018-06-22T01:56:47.140Z,9.05
2018-06-22T01:57:47.134Z,8.95
2018-06-22T01:58:46.874Z,8.97
2018-06-22T01:59:47.110Z,8.85
2018-06-22T02:00:47.103Z,8.94
2018-06-22T02:01:47.099Z,8.89
2018-06-22T02:02:47.082Z,8.8
2018-06-22T02:03:47.071Z,8.76
2018-06-22T02:04:47.069Z,8.65
2018-06-22T02:05:47.166Z,8.69
2018-06-22T02:06:46.785Z,8.61
2018-06-22T02:07:46.771Z,8.54
2018-06-22T02:08:47.025Z,8.49
2018-06-22T02:09:47.012Z,8.52
2018-06-22T02:10:46.748Z,8.44
2018-06-22T02:11:46.999Z,8.42
2018-06-22T02:12:46.723Z,8.43
2018-06-22T02:13:46.711Z,8.35
2018-06-22T02:14:46.958Z,8.42
2018-06-22T02:15:46.953Z,8.28
2018-06-22T02:16:46.935Z,8.26
2018-06-22T02:17:46.669Z,8.21
2018-06-22T02:18:46.917Z,8.29
2018-06-22T02:19:46.910Z,8.16
2018-06-22T02:20:46.640Z,8.22
2018-06-22T02:21:46.884Z,8.21
2018-06-22T02:22:46.885Z,8.17
2018-06-22T02:23:46.604Z,8.16
2018-06-22T02:24:46.857Z,8.1
2018-06-22T02:25:46.841Z,8.04
2018-06-22T02:26:46.836Z,8.1
2018-06-22T02:27:46.822Z,8.04
2018-06-22T02:28:46.550Z,8.04
2018-06-22T02:29:46.797Z,8.03
2018-06-22T02:30:46.530Z,8.04
2018-06-22T02:31:46.518Z,8.01
2018-06-22T02:32:46.503Z,7.99
2018-06-22T02:33:46.763Z,7.92
2018-06-22T02:34:46.745Z,7.96
2018-06-22T02:35:46.746Z,7.91
2018-06-22T02:36:46.732Z,7.95
2018-06-22T02:37:46.714Z,7.82
2018-06-22T02:38:46.702Z,7.77
2018-06-22T02:39:46.431Z,7.77
2018-06-22T02:40:46.678Z,7.78
2018-06-22T02:41:46.671Z,7.75
2018-06-22T02:42:46.654Z,7.74
2018-06-22T02:43:46.385Z,7.78
2018-06-22T02:44:46.634Z,7.74
2018-06-22T02:45:46.646Z,7.73
2018-06-22T02:46:46.353Z,7.74
2018-06-22T02:47:46.601Z,7.67
2018-06-22T02:48:46.076Z,7.58
2018-06-22T02:49:46.593Z,7.58
2018-06-22T02:50:46.573Z,7.63
2018-06-22T02:51:46.559Z,7.58
2018-06-22T02:52:46.544Z,7.59
2018-06-22T02:53:46.532Z,7.63
2018-06-22T02:54:46.263Z,7.56
2018-06-22T02:55:46.505Z,7.47
2018-06-22T02:56:46.500Z,7.49
2018-06-22T02:57:46.541Z,7.47
2018-06-22T02:58:46.474Z,7.54
2018-06-22T02:59:46.284Z,7.54
2018-06-22T03:00:46.457Z,7.49
2018-06-22T03:01:46.191Z,7.55
2018-06-22T03:02:46.446Z,7.54
2018-06-22T03:03:46.172Z,7.45
2018-06-22T03:04:46.411Z,7.47
2018-06-22T03:05:46.401Z,7.47
2018-06-22T03:06:46.128Z,7.52
2018-06-22T03:07:46.377Z,7.45
2018-06-22T03:08:46.365Z,7.47
2018-06-22T03:09:46.349Z,7.45
2018-06-22T03:10:46.343Z,7.44
2018-06-22T03:11:46.074Z,7.48
2018-06-22T03:12:46.323Z,7.45
2018-06-22T03:13:46.310Z,7.44
2018-06-22T03:14:45.786Z,7.45
2018-06-22T03:15:46.293Z,7.47
2018-06-22T03:16:46.292Z,7.49
2018-06-22T03:17:46.260Z,7.54
2018-06-22T03:18:46.259Z,7.54
2018-06-22T03:19:46.239Z,7.54
2018-06-22T03:20:46.229Z,7.41
2018-06-22T03:21:45.958Z,7.48
2018-06-22T03:22:46.203Z,7.44
2018-06-22T03:23:45.935Z,7.49
2018-06-22T03:24:46.182Z,7.4
2018-06-22T03:25:46.174Z,7.51
2018-06-22T03:26:46.158Z,7.39
2018-06-22T03:27:46.145Z,7.39
2018-06-22T03:28:46.137Z,7.39
2018-06-22T03:29:46.124Z,7.37
2018-06-22T03:30:46.114Z,7.49
2018-06-22T03:31:46.099Z,7.45
2018-06-22T03:32:45.831Z,7.48
2018-06-22T03:33:45.824Z,7.34
2018-06-22T03:34:46.066Z,7.49
2018-06-22T03:35:46.059Z,7.33
2018-06-22T03:36:45.798Z,7.4
2018-06-22T03:37:46.032Z,7.39
2018-06-22T03:38:46.018Z,7.37
2018-06-22T03:39:45.751Z,7.37
2018-06-22T03:40:45.743Z,7.27
2018-06-22T03:41:45.988Z,7.44
2018-06-22T03:42:45.975Z,7.41
2018-06-22T03:43:45.706Z,7.45
2018-06-22T03:44:45.949Z,7.41
2018-06-22T03:45:45.936Z,7.41
2018-06-22T03:46:45.668Z,7.4
2018-06-22T03:47:45.916Z,7.44
2018-06-22T03:48:45.905Z,7.39
2018-06-22T03:49:45.636Z,7.41
2018-06-22T03:50:45.623Z,7.41
2018-06-22T03:51:45.612Z,7.4
2018-06-22T03:52:45.860Z,7.45
2018-06-22T03:53:45.844Z,7.45
2018-06-22T03:54:45.847Z,7.4
2018-06-22T03:55:45.821Z,7.48
2018-06-22T03:56:45.941Z,7.49
2018-06-22T03:57:45.816Z,7.49
2018-06-22T03:58:45.790Z,7.41
2018-06-22T03:59:45.778Z,7.45
2018-06-22T04:00:45.511Z,7.54
2018-06-22T04:01:45.493Z,7.44
2018-06-22T04:02:45.744Z,7.49
2018-06-22T04:03:45.744Z,7.52
2018-06-22T04:04:45.462Z,7.52
2018-06-22T04:05:45.706Z,7.59
2018-06-22T04:06:45.758Z,7.67
2018-06-22T04:07:45.687Z,7.63
2018-06-22T04:08:45.689Z,7.63
2018-06-22T04:09:45.416Z,7.77
2018-06-22T04:10:45.649Z,7.82
2018-06-22T04:11:45.635Z,7.8
2018-06-22T04:12:45.628Z,7.96
2018-06-22T04:13:45.617Z,8.03
2018-06-22T04:14:45.605Z,8.01
2018-06-22T04:15:45.336Z,8.09
2018-06-22T04:16:45.328Z,8.09
2018-06-22T04:17:45.312Z,8.04
2018-06-22T04:18:45.555Z,8.06
2018-06-22T04:19:45.290Z,8.24
2018-06-22T04:20:45.542Z,8.13
2018-06-22T04:21:45.279Z,8.09
2018-06-22T04:22:45.518Z,8.03
2018-06-22T04:23:45.499Z,8.07
2018-06-22T04:24:45.493Z,8.17
2018-06-22T04:25:45.222Z,8.13
2018-06-22T04:26:44.953Z,8.19
2018-06-22T04:27:45.200Z,8.11
2018-06-22T04:28:45.446Z,8.22
2018-06-22T04:29:45.177Z,8.43
2018-06-22T04:30:45.425Z,8.57
2018-06-22T04:31:45.157Z,8.64
2018-06-22T04:32:45.404Z,8.74
2018-06-22T04:33:45.388Z,8.77
2018-06-22T04:34:45.391Z,8.92
2018-06-22T04:35:45.388Z,8.89
2018-06-22T04:36:45.105Z,8.9
2018-06-22T04:37:45.090Z,8.98
2018-06-22T04:38:45.536Z,9.01
2018-06-22T04:39:45.325Z,8.95
2018-06-22T04:40:45.320Z,8.97
2018-06-22T04:41:45.047Z,9.14
2018-06-22T04:42:45.038Z,9.2
2018-06-22T04:43:45.293Z,9.27
2018-06-22T04:44:45.268Z,9.38
2018-06-22T04:45:45.266Z,9.37
2018-06-22T04:46:44.993Z,9.48
2018-06-22T04:47:45.518Z,9.5
2018-06-22T04:48:44.980Z,9.5
2018-06-22T04:49:45.223Z,9.55
2018-06-22T04:50:44.954Z,9.59
2018-06-22T04:51:45.199Z,9.59
2018-06-22T04:52:44.937Z,9.7
2018-06-22T04:53:45.181Z,9.67
2018-06-22T04:54:45.172Z,9.64
2018-06-22T04:55:45.159Z,9.67
2018-06-22T04:56:44.890Z,9.78
2018-06-22T04:57:45.137Z,9.84
2018-06-22T04:58:44.873Z,9.88
2018-06-22T04:59:45.118Z,9.95
2018-06-22T05:00:44.852Z,10
2018-06-22T05:01:45.104Z,9.9
2018-06-22T05:02:45.091Z,9.92
2018-06-22T05:03:45.464Z,9.92
2018-06-22T05:04:44.555Z,9.93
2018-06-22T05:05:44.800Z,9.92
2018-06-22T05:06:45.053Z,9.93
2018-06-22T05:07:45.039Z,9.95
2018-06-22T05:08:45.035Z,9.89
2018-06-22T05:09:45.020Z,9.93
2018-06-22T05:10:45.062Z,9.81
2018-06-22T05:11:44.744Z,9.92
2018-06-22T05:12:44.731Z,9.89
2018-06-22T05:13:44.721Z,9.96
2018-06-22T05:14:44.711Z,9.95
2018-06-22T05:15:45.123Z,9.95
2018-06-22T05:16:44.953Z,9.93
2018-06-22T05:17:44.944Z,9.96
2018-06-22T05:18:44.938Z,9.98
2018-06-22T05:19:44.928Z,10.07
2018-06-22T05:20:44.911Z,10.03
2018-06-22T05:21:44.647Z,9.95
2018-06-22T05:22:45.166Z,10.1
2018-06-22T05:23:44.897Z,10
2018-06-22T05:24:44.664Z,9.9
2018-06-22T05:25:44.643Z,9.96
2018-06-22T05:26:44.871Z,9.92
2018-06-22T05:27:44.849Z,9.92
2018-06-22T05:28:44.835Z,9.95
2018-06-22T05:29:44.827Z,9.84
2018-06-22T05:30:44.822Z,9.78
2018-06-22T05:31:44.807Z,9.85
2018-06-22T05:32:44.795Z,9.89
2018-06-22T05:33:44.792Z,9.8
2018-06-22T05:34:44.521Z,9.84
2018-06-22T05:35:44.792Z,9.92
2018-06-22T05:36:44.762Z,9.9
2018-06-22T05:37:44.755Z,9.9
2018-06-22T05:38:44.738Z,9.81
2018-06-22T05:39:44.732Z,9.85
2018-06-22T05:40:44.720Z,9.81
2018-06-22T05:41:44.719Z,9.81
2018-06-22T05:42:44.697Z,9.88
2018-06-22T05:43:44.692Z,9.78
2018-06-22T05:44:44.433Z,9.81
2018-06-22T05:45:44.414Z,9.82
2018-06-22T05:46:44.663Z,9.81
2018-06-22T05:47:44.656Z,9.84
2018-06-22T05:48:44.644Z,9.78
2018-06-22T05:49:44.380Z,9.81
2018-06-22T05:50:44.809Z,9.67
2018-06-22T05:51:44.361Z,9.71
2018-06-22T05:52:44.603Z,9.71
2018-06-22T05:53:44.333Z,9.7
2018-06-22T05:54:44.584Z,9.63
2018-06-22T05:55:44.317Z,9.71
2018-06-22T05:56:44.393Z,9.66
2018-06-22T05:57:44.559Z,9.75
2018-06-22T05:58:44.296Z,9.85
2018-06-22T05:59:44.280Z,9.85
2018-06-22T06:00:44.273Z,9.96
2018-06-22T06:01:44.257Z,10.05
2018-06-22T06:02:44.507Z,10.02
2018-06-22T06:03:44.656Z,10.15
2018-06-22T06:04:44.233Z,10.25
2018-06-22T06:05:44.480Z,10.25
2018-06-22T06:06:44.474Z,10.2
2018-06-22T06:07:44.200Z,10.13
2018-06-22T06:08:44.449Z,10.13
2018-06-22T06:09:44.448Z,10.07
2018-06-22T06:10:44.431Z,10
2018-06-22T06:11:44.426Z,10
2018-06-22T06:12:44.235Z,10.1
2018-06-22T06:13:44.402Z,10.11
2018-06-22T06:14:44.137Z,10.14
2018-06-22T06:15:44.385Z,10.21
2018-06-22T06:16:44.370Z,10.23
2018-06-22T06:17:44.366Z,10.2
2018-06-22T06:18:44.356Z,10.25
2018-06-22T06:19:44.340Z,10.25
2018-06-22T06:20:44.079Z,10.18
2018-06-22T06:21:44.068Z,10.14
2018-06-22T06:22:43.802Z,10.13
2018-06-22T06:23:44.308Z,10.14
2018-06-22T06:24:44.296Z,10.15
2018-06-22T06:25:44.291Z,10.21
2018-06-22T06:26:44.281Z,10.23
2018-06-22T06:27:44.011Z,10.28
2018-06-22T06:28:44.461Z,10.25
2018-06-22T06:29:43.993Z,10.23
2018-06-22T06:30:44.242Z,10.32
2018-06-22T06:31:44.229Z,10.25
2018-06-22T06:32:44.223Z,10.28
2018-06-22T06:33:44.226Z,10.23
2018-06-22T06:34:44.201Z,10.21
2018-06-22T06:35:44.194Z,10.28
2018-06-22T06:36:44.195Z,10.29
2018-06-22T06:37:44.175Z,10.15
2018-06-22T06:38:44.176Z,10.15
2018-06-22T06:39:44.157Z,10.11
2018-06-22T06:40:44.148Z,10.18
2018-06-22T06:41:44.175Z,10.08
2018-06-22T06:42:44.130Z,10.07
2018-06-22T06:43:44.119Z,10.03
2018-06-22T06:44:44.118Z,10.02
2018-06-22T06:45:44.105Z,10.03
2018-06-22T06:46:44.091Z,10.07
2018-06-22T06:47:44.078Z,10.05
2018-06-22T06:48:43.813Z,10.08
2018-06-22T06:49:44.324Z,10.03
2018-06-22T06:50:44.050Z,10.14
2018-06-22T06:51:44.044Z,10.17
2018-06-22T06:52:44.035Z,10.05
2018-06-22T06:53:43.767Z,10.14
2018-06-22T06:54:44.010Z,10.15
2018-06-22T06:55:43.747Z,10.25
2018-06-22T06:56:44.188Z,10.29
2018-06-22T06:57:43.987Z,10.35
2018-06-22T06:58:43.976Z,10.39
2018-06-22T06:59:43.965Z,10.63
2018-06-22T07:00:43.958Z,10.61
2018-06-22T07:01:43.952Z,10.66
2018-06-22T07:02:44.067Z,10.8
2018-06-22T07:03:43.930Z,10.95
2018-06-22T07:04:43.664Z,11.05
2018-06-22T07:05:43.953Z,11.16
2018-06-22T07:06:43.904Z,11.15
2018-06-22T07:07:43.637Z,11.3
2018-06-22T07:08:43.899Z,11.27
2018-06-22T07:09:43.875Z,11.23
2018-06-22T07:10:43.608Z,11.3
2018-06-22T07:11:43.612Z,11.24
2018-06-22T07:12:43.596Z,11.27
2018-06-22T07:13:43.330Z,11.27
2018-06-22T07:14:43.576Z,11.46
2018-06-22T07:15:43.832Z,11.49
2018-06-22T07:16:43.569Z,11.67
2018-06-22T07:17:43.811Z,11.94
2018-06-22T07:18:43.545Z,12.16
2018-06-22T07:19:43.790Z,12.43
2018-06-22T07:20:43.526Z,12.62
2018-06-22T07:21:43.776Z,12.61
2018-06-22T07:22:43.770Z,12.7
2018-06-22T07:23:43.504Z,12.73
2018-06-22T07:24:43.812Z,12.74
2018-06-22T07:25:43.484Z,12.73
2018-06-22T07:26:43.483Z,12.86
2018-06-22T07:27:43.534Z,13.01
2018-06-22T07:28:43.460Z,13.21
2018-06-22T07:29:43.457Z,13.4
2018-06-22T07:30:43.964Z,13.6
2018-06-22T07:31:43.708Z,13.55
2018-06-22T07:32:43.695Z,13.55
2018-06-22T07:33:43.430Z,13.45
2018-06-22T07:34:43.678Z,13.37
2018-06-22T07:35:43.423Z,13.24
2018-06-22T07:36:43.668Z,13.09
2018-06-22T07:37:43.399Z,12.92
2018-06-22T07:38:43.394Z,12.83
2018-06-22T07:39:43.648Z,12.7
2018-06-22T07:40:43.635Z,12.65
2018-06-22T07:41:43.373Z,12.47
2018-06-22T07:42:43.627Z,12.34
2018-06-22T07:43:43.651Z,12.22
2018-06-22T07:44:43.611Z,12.1
2018-06-22T07:45:43.600Z,12.04
2018-06-22T07:46:43.591Z,12.01
2018-06-22T07:47:43.332Z,11.97
2018-06-22T07:48:43.321Z,11.91
2018-06-22T07:49:43.627Z,11.76
2018-06-22T07:50:43.563Z,11.84
2018-06-22T07:51:43.557Z,11.64
2018-06-22T07:52:43.296Z,11.66
2018-06-22T07:53:43.539Z,11.73
2018-06-22T07:54:43.537Z,11.7
2018-06-22T07:55:43.530Z,11.63
2018-06-22T07:56:43.267Z,11.57
2018-06-22T07:57:43.511Z,11.45
2018-06-22T07:58:43.595Z,11.43
2018-06-22T07:59:43.510Z,11.41
2018-06-22T08:00:43.489Z,11.33
2018-06-22T08:01:43.488Z,11.3
2018-06-22T08:02:43.476Z,11.23
2018-06-22T08:03:43.466Z,11.16
2018-06-22T08:04:43.200Z,11.16
2018-06-22T08:05:43.194Z,11.1
2018-06-22T08:06:43.440Z,10.98
2018-06-22T08:07:43.176Z,11
2018-06-22T08:08:43.474Z,10.94
2018-06-22T08:09:43.423Z,10.92
2018-06-22T08:10:43.413Z,10.9
2018-06-22T08:11:43.404Z,10.91
2018-06-22T08:12:43.392Z,10.88
2018-06-22T08:13:43.129Z,10.94
2018-06-22T08:14:43.378Z,10.87
2018-06-22T08:15:43.365Z,10.85
2018-06-22T08:16:43.358Z,10.88
2018-06-22T08:17:43.734Z,10.91
2018-06-22T08:18:43.085Z,10.77
2018-06-22T08:19:43.078Z,10.67
2018-06-22T08:20:43.335Z,10.72
2018-06-22T08:21:43.318Z,10.77
2018-06-22T08:22:43.047Z,10.76
2018-06-22T08:23:43.697Z,10.9
2018-06-22T08:24:43.289Z,11.05
2018-06-22T08:25:43.295Z,10.98
2018-06-22T08:26:43.280Z,11.13
2018-06-22T08:27:43.265Z,11.42
2018-06-22T08:28:43.254Z,11.51
2018-06-22T08:29:43.245Z,11.57
2018-06-22T08:30:43.237Z,11.66
2018-06-22T08:31:42.971Z,11.85
2018-06-22T08:32:42.965Z,11.95
2018-06-22T08:33:42.963Z,11.94
2018-06-22T08:34:43.201Z,11.97
2018-06-22T08:35:43.193Z,12.04
2018-06-22T08:36:42.936Z,12.05
2018-06-22T08:37:43.182Z,12.19
2018-06-22T08:38:42.913Z,12.33
2018-06-22T08:39:43.165Z,12.43
2018-06-22T08:40:42.902Z,12.44
2018-06-22T08:41:43.078Z,12.31
2018-06-22T08:42:43.138Z,12.25
2018-06-22T08:43:42.872Z,12.26
2018-06-22T08:44:43.124Z,12.23
2018-06-22T08:45:43.116Z,12.18
2018-06-22T08:46:42.858Z,12.23
2018-06-22T08:47:42.845Z,12.18
2018-06-22T08:48:43.093Z,12.15
2018-06-22T08:49:43.087Z,12.1
2018-06-22T08:50:43.081Z,12.13
2018-06-22T08:51:42.809Z,12.1
2018-06-22T08:52:42.800Z,12.04
2018-06-22T08:53:43.053Z,11.88
2018-06-22T08:54:43.048Z,11.7
2018-06-22T08:55:42.863Z,11.63
2018-06-22T08:56:43.039Z,11.45
2018-06-22T08:57:43.024Z,11.39
2018-06-22T08:58:42.755Z,11.31
2018-06-22T08:59:43.007Z,11.33
2018-06-22T09:00:43.011Z,11.3
2018-06-22T09:01:43.003Z,11.38
2018-06-22T09:02:42.724Z,11.3
2018-06-22T09:03:42.974Z,11.35
2018-06-22T09:04:42.961Z,11.35
2018-06-22T09:05:42.701Z,11.26
2018-06-22T09:06:42.948Z,11.33
2018-06-22T09:07:42.682Z,11.3
2018-06-22T09:08:42.937Z,11.43
2018-06-22T09:09:42.665Z,11.46
2018-06-22T09:10:42.919Z,11.43
2018-06-22T09:11:42.909Z,11.33
2018-06-22T09:12:43.166Z,11.46
2018-06-22T09:13:42.887Z,11.49
2018-06-22T09:14:42.808Z,11.49
2018-06-22T09:15:42.623Z,11.35
2018-06-22T09:16:42.612Z,11.38
2018-06-22T09:17:42.597Z,11.42
2018-06-22T09:18:42.593Z,11.33
2018-06-22T09:19:42.678Z,11.3
2018-06-22T09:20:42.573Z,11.35
2018-06-22T09:21:42.567Z,11.38
2018-06-22T09:22:42.813Z,11.42
2018-06-22T09:23:42.290Z,11.38
2018-06-22T09:24:42.541Z,11.35
2018-06-22T09:25:42.824Z,11.35
2018-06-22T09:26:42.524Z,11.23
2018-06-22T09:27:42.513Z,11.13
2018-06-22T09:28:42.506Z,10.98
2018-06-22T09:29:42.749Z,10.8
2018-06-22T09:30:42.750Z,10.66
2018-06-22T09:31:42.477Z,10.52
2018-06-22T09:32:42.726Z,10.36
2018-06-22T09:33:42.717Z,10.26
2018-06-22T09:34:42.457Z,10.26
2018-06-22T09:35:42.486Z,10.23
2018-06-22T09:36:42.207Z,10.31
2018-06-22T09:37:42.684Z,10.26
2018-06-22T09:38:42.685Z,10.23
2018-06-22T09:39:42.667Z,10.08
2018-06-22T09:40:42.653Z,10.11
2018-06-22T09:41:42.644Z,10.07
2018-06-22T09:42:42.942Z,9.99
2018-06-22T09:43:42.369Z,9.93
2018-06-22T09:44:42.618Z,9.92
2018-06-22T09:45:42.608Z,9.93
2018-06-22T09:46:42.599Z,9.93
2018-06-22T09:47:42.330Z,9.93
2018-06-22T09:48:42.066Z,10.11
2018-06-22T09:49:42.569Z,10.17
2018-06-22T09:50:42.561Z,10.26
2018-06-22T09:51:42.554Z,10.33
2018-06-22T09:52:42.541Z,10.36
2018-06-22T09:53:42.274Z,10.41
2018-06-22T09:54:42.527Z,10.49
2018-06-22T09:55:42.258Z,10.52
2018-06-22T09:56:42.501Z,10.57
2018-06-22T09:57:42.493Z,10.65
2018-06-22T09:58:42.485Z,10.69
2018-06-22T09:59:42.216Z,10.69
2018-06-22T10:00:42.471Z,10.67
2018-06-22T10:01:42.456Z,10.67
2018-06-22T10:02:42.188Z,10.59
2018-06-22T10:03:42.439Z,10.57
2018-06-22T10:04:42.584Z,10.46
2018-06-22T10:05:42.420Z,10.47
2018-06-22T10:06:42.157Z,10.49
2018-06-22T10:07:41.886Z,10.38
2018-06-22T10:08:42.137Z,10.25
2018-06-22T10:09:42.388Z,10.18
2018-06-22T10:10:42.375Z,10.03
2018-06-22T10:11:42.107Z,10.1
2018-06-22T10:12:42.357Z,9.99
2018-06-22T10:13:42.176Z,10.08
2018-06-22T10:14:42.341Z,10
2018-06-22T10:15:42.321Z,9.9
2018-06-22T10:16:42.314Z,9.89
2018-06-22T10:17:41.792Z,9.8
2018-06-22T10:18:42.294Z,9.78
2018-06-22T10:19:42.112Z,9.85
2018-06-22T10:20:42.283Z,9.95
2018-06-22T10:21:42.269Z,9.89
2018-06-22T10:22:42.261Z,9.88
2018-06-22T10:23:42.001Z,9.95
2018-06-22T10:24:42.239Z,9.93
2018-06-22T10:25:41.973Z,9.96
2018-06-22T10:26:42.220Z,9.95
2018-06-22T10:27:41.951Z,9.92
2018-06-22T10:28:42.203Z,9.82
2018-06-22T10:29:41.938Z,9.92
2018-06-22T10:30:41.921Z,9.89
2018-06-22T10:31:42.177Z,9.9
2018-06-22T10:32:42.158Z,9.93
2018-06-22T10:33:41.894Z,9.92
2018-06-22T10:34:41.882Z,9.88
2018-06-22T10:35:41.882Z,9.88
2018-06-22T10:36:42.117Z,9.84
2018-06-22T10:37:41.595Z,9.81
2018-06-22T10:38:41.844Z,9.77
2018-06-22T10:39:42.100Z,9.63
2018-06-22T10:40:41.570Z,9.57
2018-06-22T10:41:42.070Z,9.55
2018-06-22T10:42:42.063Z,9.47
2018-06-22T10:43:42.049Z,9.32
2018-06-22T10:44:42.044Z,9.23
2018-06-22T10:45:42.076Z,9.05
2018-06-22T10:46:41.768Z,9.04
2018-06-22T10:47:41.753Z,9.05
2018-06-22T10:48:41.745Z,8.97
2018-06-22T10:49:41.747Z,9.11
2018-06-22T10:50:41.723Z,9.14
2018-06-22T10:51:41.829Z,9.26
2018-06-22T10:52:41.878Z,9.17
2018-06-22T10:53:41.437Z,9.34
2018-06-22T10:54:41.682Z,9.27
2018-06-22T10:55:41.928Z,9.32
2018-06-22T10:56:41.921Z,9.17
2018-06-22T10:57:41.911Z,9.24
2018-06-22T10:58:41.640Z,9.29
2018-06-22T10:59:42.125Z,9.3
2018-06-22T11:00:41.621Z,9.45
2018-06-22T11:01:41.874Z,9.48
2018-06-22T11:02:41.602Z,9.48
2018-06-22T11:03:41.585Z,9.48
2018-06-22T11:04:41.857Z,9.53
2018-06-22T11:05:41.673Z,9.56
2018-06-22T11:06:41.562Z,9.59
2018-06-22T11:07:41.805Z,9.55
2018-06-22T11:08:41.540Z,9.57
2018-06-22T11:09:41.530Z,9.64
2018-06-22T11:10:41.521Z,9.74
2018-06-22T11:11:41.510Z,9.81
2018-06-22T11:12:41.758Z,9.84
2018-06-22T11:13:41.760Z,9.93
2018-06-22T11:14:41.742Z,9.96
2018-06-22T11:15:41.474Z,9.93
2018-06-22T11:16:41.822Z,9.95
2018-06-22T11:17:41.708Z,9.93
2018-06-22T11:18:41.438Z,9.89
2018-06-22T11:19:41.693Z,9.89
2018-06-22T11:20:41.418Z,9.98
2018-06-22T11:21:41.672Z,9.89
2018-06-22T11:22:41.659Z,9.99
2018-06-22T11:23:41.645Z,10.02
2018-06-22T11:24:41.492Z,10.18
2018-06-22T11:25:41.637Z,10.08
2018-06-22T11:26:41.357Z,10.07
2018-06-22T11:27:41.353Z,10.03
2018-06-22T11:28:41.346Z,10.07
2018-06-22T11:29:41.328Z,10.02
2018-06-22T11:30:41.613Z,10.13
2018-06-22T11:31:41.585Z,10.02
2018-06-22T11:32:41.309Z,10.03
2018-06-22T11:33:41.291Z,10.02
2018-06-22T11:34:41.674Z,10.07
2018-06-22T11:35:41.307Z,9.95
2018-06-22T11:36:41.533Z,9.81
2018-06-22T11:37:41.516Z,9.71
2018-06-22T11:38:41.500Z,9.63
2018-06-22T11:39:41.489Z,9.5
2018-06-22T11:40:41.479Z,9.47
2018-06-22T11:41:41.212Z,9.44
2018-06-22T11:42:41.201Z,9.48
2018-06-22T11:43:41.449Z,9.47
2018-06-22T11:44:41.437Z,9.44
2018-06-22T11:45:41.427Z,9.52
2018-06-22T11:46:41.419Z,9.53
2018-06-22T11:47:41.411Z,9.47
2018-06-22T11:48:41.411Z,9.5
2018-06-22T11:49:41.396Z,9.53
2018-06-22T11:50:41.382Z,9.52
2018-06-22T11:51:41.373Z,9.5
2018-06-22T11:52:41.112Z,9.52
2018-06-22T11:53:41.090Z,9.35
2018-06-22T11:54:41.340Z,9.37
2018-06-22T11:55:41.325Z,9.29
2018-06-22T11:56:41.060Z,9.29
2018-06-22T11:57:41.310Z,9.34
2018-06-22T11:58:41.042Z,9.32
2018-06-22T11:59:41.290Z,9.39
2018-06-22T12:00:41.284Z,9.47
2018-06-22T12:01:41.384Z,9.52
2018-06-22T12:02:41.000Z,9.66
2018-06-22T12:03:40.987Z,9.71
2018-06-22T12:04:41.363Z,9.78
2018-06-22T12:05:40.967Z,9.72
2018-06-22T12:06:41.211Z,9.93
2018-06-22T12:07:41.201Z,9.8
2018-06-22T12:08:40.935Z,9.78
2018-06-22T12:09:41.182Z,9.81
2018-06-22T12:10:41.172Z,9.84
2018-06-22T12:11:40.911Z,9.89
2018-06-22T12:12:41.152Z,9.77
2018-06-22T12:13:40.888Z,9.78
2018-06-22T12:14:41.140Z,9.74
2018-06-22T12:15:41.129Z,9.81
2018-06-22T12:16:41.110Z,9.92
2018-06-22T12:17:40.843Z,10.02
2018-06-22T12:18:40.837Z,10.02
2018-06-22T12:19:40.567Z,10.25
2018-06-22T12:20:40.815Z,10.21
2018-06-22T12:21:40.812Z,10.17
2018-06-22T12:22:40.795Z,10.15
2018-06-22T12:23:41.042Z,10.13
2018-06-22T12:24:40.773Z,10.05
2018-06-22T12:25:41.032Z,10.14
2018-06-22T12:26:41.013Z,10.13
2018-06-22T12:27:40.865Z,10.07
2018-06-22T12:28:40.995Z,10.14
2018-06-22T12:29:40.995Z,10.31
2018-06-22T12:30:40.972Z,10.21
2018-06-22T12:31:40.452Z,10.29
2018-06-22T12:32:40.955Z,10.51
2018-06-22T12:33:40.945Z,10.7
2018-06-22T12:34:40.938Z,10.87
2018-06-22T12:35:40.668Z,11.12
2018-06-22T12:36:40.405Z,11.41
2018-06-22T12:37:40.911Z,11.53
2018-06-22T12:38:40.999Z,11.66
2018-06-22T12:39:41.045Z,11.57
2018-06-22T12:40:40.890Z,11.6
2018-06-22T12:41:40.881Z,11.59
2018-06-22T12:42:40.868Z,11.64
2018-06-22T12:43:40.603Z,11.56
2018-06-22T12:44:40.845Z,11.52
2018-06-22T12:45:40.587Z,11.49
2018-06-22T12:46:40.579Z,11.24
2018-06-22T12:47:40.822Z,11.13
2018-06-22T12:48:40.818Z,11.02
2018-06-22T12:49:40.803Z,10.92
2018-06-22T12:50:40.952Z,10.76
2018-06-22T12:51:40.532Z,10.84
2018-06-22T12:52:40.520Z,10.92
2018-06-22T12:53:40.781Z,11.12
2018-06-22T12:54:40.756Z,11.21
2018-06-22T12:55:40.754Z,11.41
2018-06-22T12:56:40.491Z,11.57
2018-06-22T12:57:40.938Z,11.73
2018-06-22T12:58:40.469Z,12.04
2018-06-22T12:59:40.466Z,12.16
2018-06-22T13:00:40.714Z,12.41
2018-06-22T13:01:40.703Z,12.59
2018-06-22T13:02:40.698Z,12.81
2018-06-22T13:03:40.706Z,12.92
2018-06-22T13:04:40.677Z,12.94
2018-06-22T13:05:40.678Z,12.92
2018-06-22T13:06:40.666Z,12.77
2018-06-22T13:07:40.655Z,12.71
2018-06-22T13:08:40.653Z,12.59
2018-06-22T13:09:40.981Z,12.52
2018-06-22T13:10:40.122Z,12.51